sensor_id;sensor_type;location;lat;lon;timestamp;P1;durP1;ratioP1;P2;durP2;ratioP2
59042;SDS011;44826;51.596;5.624;2023-04-24T00:02:20;5.28;;;4.00;;
59042;SDS011;44826;51.596;5.624;2023-04-24T00:04:45;6.63;;;4.32;;
59042;SDS011;44826;51.596;5.624;2023-04-24T00:07:11;7.07;;;5.03;;
59042;SDS011;44826;51.596;5.624;2023-04-24T00:09:37;7.00;;;5.35;;
59042;SDS011;44826;51.596;5.624;2023-04-24T00:12:03;8.40;;;5.45;;
59042;SDS011;44826;51.596;5.624;2023-04-24T00:14:29;7.57;;;5.30;;
59042;SDS011;44826;51.596;5.624;2023-04-24T00:16:55;9.85;;;5.85;;
59042;SDS011;44826;51.596;5.624;2023-04-24T00:19:20;8.57;;;5.72;;
59042;SDS011;44826;51.596;5.624;2023-04-24T00:21:46;10.07;;;6.25;;
59042;SDS011;44826;51.596;5.624;2023-04-24T00:24:14;9.27;;;6.18;;
59042;SDS011;44826;51.596;5.624;2023-04-24T00:26:40;9.77;;;6.63;;
59042;SDS011;44826;51.596;5.624;2023-04-24T00:29:05;9.48;;;6.20;;
59042;SDS011;44826;51.596;5.624;2023-04-24T00:31:30;8.40;;;5.95;;
59042;SDS011;44826;51.596;5.624;2023-04-24T00:33:56;11.93;;;7.00;;
59042;SDS011;44826;51.596;5.624;2023-04-24T00:36:21;9.68;;;6.88;;
59042;SDS011;44826;51.596;5.624;2023-04-24T00:38:46;11.90;;;7.28;;
59042;SDS011;44826;51.596;5.624;2023-04-24T00:41:12;12.02;;;7.10;;
59042;SDS011;44826;51.596;5.624;2023-04-24T00:43:37;12.35;;;7.85;;
59042;SDS011;44826;51.596;5.624;2023-04-24T00:46:03;14.07;;;7.13;;
59042;SDS011;44826;51.596;5.624;2023-04-24T00:48:29;10.60;;;7.57;;
59042;SDS011;44826;51.596;5.624;2023-04-24T00:50:54;11.77;;;7.60;;
59042;SDS011;44826;51.596;5.624;2023-04-24T00:53:20;16.50;;;8.13;;
59042;SDS011;44826;51.596;5.624;2023-04-24T00:55:45;11.73;;;7.55;;
59042;SDS011;44826;51.596;5.624;2023-04-24T00:58:11;10.10;;;7.28;;
59042;SDS011;44826;51.596;5.624;2023-04-24T01:00:37;14.27;;;8.23;;
59042;SDS011;44826;51.596;5.624;2023-04-24T01:03:03;14.65;;;8.35;;
59042;SDS011;44826;51.596;5.624;2023-04-24T01:05:30;11.82;;;8.38;;
59042;SDS011;44826;51.596;5.624;2023-04-24T01:07:56;14.00;;;8.35;;
59042;SDS011;44826;51.596;5.624;2023-04-24T01:10:22;12.68;;;8.70;;
59042;SDS011;44826;51.596;5.624;2023-04-24T01:12:48;14.23;;;8.82;;
59042;SDS011;44826;51.596;5.624;2023-04-24T01:15:14;15.25;;;8.93;;
59042;SDS011;44826;51.596;5.624;2023-04-24T01:17:40;13.02;;;8.85;;
59042;SDS011;44826;51.596;5.624;2023-04-24T01:20:06;14.15;;;9.13;;
59042;SDS011;44826;51.596;5.624;2023-04-24T01:22:33;13.27;;;8.73;;
59042;SDS011;44826;51.596;5.624;2023-04-24T01:24:59;13.85;;;9.00;;
59042;SDS011;44826;51.596;5.624;2023-04-24T01:27:24;15.57;;;8.95;;
59042;SDS011;44826;51.596;5.624;2023-04-24T01:29:50;13.35;;;9.23;;
59042;SDS011;44826;51.596;5.624;2023-04-24T01:32:17;16.33;;;9.52;;
59042;SDS011;44826;51.596;5.624;2023-04-24T01:34:43;15.10;;;9.32;;
59042;SDS011;44826;51.596;5.624;2023-04-24T01:37:09;14.30;;;9.00;;
59042;SDS011;44826;51.596;5.624;2023-04-24T01:39:34;12.70;;;8.88;;
59042;SDS011;44826;51.596;5.624;2023-04-24T01:42:00;12.82;;;8.65;;
59042;SDS011;44826;51.596;5.624;2023-04-24T01:44:27;12.50;;;8.23;;
59042;SDS011;44826;51.596;5.624;2023-04-24T01:46:52;15.43;;;9.77;;
59042;SDS011;44826;51.596;5.624;2023-04-24T01:49:19;14.07;;;8.93;;
59042;SDS011;44826;51.596;5.624;2023-04-24T01:51:45;15.73;;;9.23;;
59042;SDS011;44826;51.596;5.624;2023-04-24T01:54:10;17.08;;;10.25;;
59042;SDS011;44826;51.596;5.624;2023-04-24T01:56:36;18.25;;;10.50;;
59042;SDS011;44826;51.596;5.624;2023-04-24T01:59:06;16.55;;;10.32;;
59042;SDS011;44826;51.596;5.624;2023-04-24T02:01:35;18.05;;;11.48;;
59042;SDS011;44826;51.596;5.624;2023-04-24T02:04:01;15.75;;;10.73;;
59042;SDS011;44826;51.596;5.624;2023-04-24T02:06:26;19.80;;;12.27;;
59042;SDS011;44826;51.596;5.624;2023-04-24T02:08:52;17.63;;;11.70;;
59042;SDS011;44826;51.596;5.624;2023-04-24T02:11:18;20.63;;;12.98;;
59042;SDS011;44826;51.596;5.624;2023-04-24T02:13:43;19.58;;;12.88;;
59042;SDS011;44826;51.596;5.624;2023-04-24T02:16:09;19.00;;;12.07;;
59042;SDS011;44826;51.596;5.624;2023-04-24T02:18:34;18.63;;;11.75;;
59042;SDS011;44826;51.596;5.624;2023-04-24T02:20:59;20.50;;;12.68;;
59042;SDS011;44826;51.596;5.624;2023-04-24T02:23:25;19.27;;;12.77;;
59042;SDS011;44826;51.596;5.624;2023-04-24T02:25:52;19.13;;;12.23;;
59042;SDS011;44826;51.596;5.624;2023-04-24T02:28:18;19.50;;;12.80;;
59042;SDS011;44826;51.596;5.624;2023-04-24T02:30:43;17.70;;;12.98;;
59042;SDS011;44826;51.596;5.624;2023-04-24T02:33:08;18.63;;;12.50;;
59042;SDS011;44826;51.596;5.624;2023-04-24T02:35:33;18.58;;;13.00;;
59042;SDS011;44826;51.596;5.624;2023-04-24T02:37:59;16.90;;;12.07;;
59042;SDS011;44826;51.596;5.624;2023-04-24T02:40:25;20.42;;;12.40;;
59042;SDS011;44826;51.596;5.624;2023-04-24T02:42:50;16.90;;;12.35;;
59042;SDS011;44826;51.596;5.624;2023-04-24T02:45:15;18.55;;;12.88;;
59042;SDS011;44826;51.596;5.624;2023-04-24T02:47:41;17.20;;;11.35;;
59042;SDS011;44826;51.596;5.624;2023-04-24T02:50:06;22.30;;;12.70;;
59042;SDS011;44826;51.596;5.624;2023-04-24T02:52:32;17.70;;;12.25;;
59042;SDS011;44826;51.596;5.624;2023-04-24T02:54:57;18.17;;;12.77;;
59042;SDS011;44826;51.596;5.624;2023-04-24T02:57:22;19.17;;;11.60;;
59042;SDS011;44826;51.596;5.624;2023-04-24T02:59:47;18.67;;;12.48;;
59042;SDS011;44826;51.596;5.624;2023-04-24T03:02:13;17.75;;;11.68;;
59042;SDS011;44826;51.596;5.624;2023-04-24T03:04:38;17.98;;;12.15;;
59042;SDS011;44826;51.596;5.624;2023-04-24T03:07:04;17.10;;;12.18;;
59042;SDS011;44826;51.596;5.624;2023-04-24T03:09:30;19.98;;;12.63;;
59042;SDS011;44826;51.596;5.624;2023-04-24T03:11:56;18.50;;;12.15;;
59042;SDS011;44826;51.596;5.624;2023-04-24T03:14:22;18.08;;;11.77;;
59042;SDS011;44826;51.596;5.624;2023-04-24T03:16:47;17.52;;;11.50;;
59042;SDS011;44826;51.596;5.624;2023-04-24T03:19:12;17.10;;;11.27;;
59042;SDS011;44826;51.596;5.624;2023-04-24T03:21:38;17.75;;;11.40;;
59042;SDS011;44826;51.596;5.624;2023-04-24T03:24:06;17.77;;;11.63;;
59042;SDS011;44826;51.596;5.624;2023-04-24T03:26:34;17.27;;;11.60;;
59042;SDS011;44826;51.596;5.624;2023-04-24T03:29:00;18.38;;;11.57;;
59042;SDS011;44826;51.596;5.624;2023-04-24T03:31:25;18.83;;;11.50;;
59042;SDS011;44826;51.596;5.624;2023-04-24T03:33:50;16.90;;;11.35;;
59042;SDS011;44826;51.596;5.624;2023-04-24T03:36:16;20.05;;;11.55;;
59042;SDS011;44826;51.596;5.624;2023-04-24T03:38:42;17.45;;;11.30;;
59042;SDS011;44826;51.596;5.624;2023-04-24T03:41:07;17.13;;;11.93;;
59042;SDS011;44826;51.596;5.624;2023-04-24T03:43:32;17.60;;;11.07;;
59042;SDS011;44826;51.596;5.624;2023-04-24T03:45:59;17.00;;;11.02;;
59042;SDS011;44826;51.596;5.624;2023-04-24T03:48:25;17.45;;;11.15;;
59042;SDS011;44826;51.596;5.624;2023-04-24T03:50:50;15.80;;;10.30;;
59042;SDS011;44826;51.596;5.624;2023-04-24T03:53:15;17.45;;;10.55;;
59042;SDS011;44826;51.596;5.624;2023-04-24T03:55:41;17.92;;;10.77;;
59042;SDS011;44826;51.596;5.624;2023-04-24T03:58:06;16.42;;;10.88;;
59042;SDS011;44826;51.596;5.624;2023-04-24T04:00:31;15.98;;;10.50;;
59042;SDS011;44826;51.596;5.624;2023-04-24T04:02:57;16.58;;;10.43;;
59042;SDS011;44826;51.596;5.624;2023-04-24T04:05:22;13.73;;;10.13;;
59042;SDS011;44826;51.596;5.624;2023-04-24T04:07:47;15.10;;;9.70;;
59042;SDS011;44826;51.596;5.624;2023-04-24T04:10:13;15.85;;;9.98;;
59042;SDS011;44826;51.596;5.624;2023-04-24T04:12:38;14.00;;;10.20;;
59042;SDS011;44826;51.596;5.624;2023-04-24T04:15:03;14.13;;;9.38;;
59042;SDS011;44826;51.596;5.624;2023-04-24T04:17:30;14.70;;;8.93;;
59042;SDS011;44826;51.596;5.624;2023-04-24T04:19:56;13.40;;;9.23;;
59042;SDS011;44826;51.596;5.624;2023-04-24T04:22:22;15.30;;;9.43;;
59042;SDS011;44826;51.596;5.624;2023-04-24T04:24:47;14.05;;;9.30;;
59042;SDS011;44826;51.596;5.624;2023-04-24T04:27:12;14.57;;;9.13;;
59042;SDS011;44826;51.596;5.624;2023-04-24T04:29:38;15.45;;;9.02;;
59042;SDS011;44826;51.596;5.624;2023-04-24T04:32:04;14.98;;;8.57;;
59042;SDS011;44826;51.596;5.624;2023-04-24T04:34:30;14.55;;;9.05;;
59042;SDS011;44826;51.596;5.624;2023-04-24T04:36:56;13.60;;;9.00;;
59042;SDS011;44826;51.596;5.624;2023-04-24T04:39:24;13.85;;;9.45;;
59042;SDS011;44826;51.596;5.624;2023-04-24T04:41:51;14.80;;;9.23;;
59042;SDS011;44826;51.596;5.624;2023-04-24T04:44:16;14.23;;;9.43;;
59042;SDS011;44826;51.596;5.624;2023-04-24T04:46:41;13.85;;;9.13;;
59042;SDS011;44826;51.596;5.624;2023-04-24T04:49:07;13.00;;;8.93;;
59042;SDS011;44826;51.596;5.624;2023-04-24T04:51:33;13.00;;;8.75;;
59042;SDS011;44826;51.596;5.624;2023-04-24T04:53:59;11.35;;;8.27;;
59042;SDS011;44826;51.596;5.624;2023-04-24T04:56:25;11.57;;;7.80;;
59042;SDS011;44826;51.596;5.624;2023-04-24T04:58:50;11.57;;;7.43;;
59042;SDS011;44826;51.596;5.624;2023-04-24T05:01:15;11.32;;;7.88;;
59042;SDS011;44826;51.596;5.624;2023-04-24T05:03:41;10.10;;;7.22;;
59042;SDS011;44826;51.596;5.624;2023-04-24T05:06:06;12.07;;;7.68;;
59042;SDS011;44826;51.596;5.624;2023-04-24T05:08:31;10.70;;;7.68;;
59042;SDS011;44826;51.596;5.624;2023-04-24T05:10:57;9.98;;;7.07;;
59042;SDS011;44826;51.596;5.624;2023-04-24T05:13:22;9.13;;;6.50;;
59042;SDS011;44826;51.596;5.624;2023-04-24T05:15:47;9.35;;;6.90;;
59042;SDS011;44826;51.596;5.624;2023-04-24T05:18:12;9.27;;;6.35;;
59042;SDS011;44826;51.596;5.624;2023-04-24T05:20:38;8.85;;;6.90;;
59042;SDS011;44826;51.596;5.624;2023-04-24T05:23:03;8.15;;;6.45;;
59042;SDS011;44826;51.596;5.624;2023-04-24T05:25:28;8.77;;;6.22;;
59042;SDS011;44826;51.596;5.624;2023-04-24T05:27:54;8.68;;;6.55;;
59042;SDS011;44826;51.596;5.624;2023-04-24T05:30:19;9.75;;;7.00;;
59042;SDS011;44826;51.596;5.624;2023-04-24T05:32:45;10.07;;;6.43;;
59042;SDS011;44826;51.596;5.624;2023-04-24T05:35:10;8.65;;;6.95;;
59042;SDS011;44826;51.596;5.624;2023-04-24T05:37:36;10.23;;;7.00;;
59042;SDS011;44826;51.596;5.624;2023-04-24T05:40:01;8.77;;;6.55;;
59042;SDS011;44826;51.596;5.624;2023-04-24T05:42:29;8.52;;;6.55;;
59042;SDS011;44826;51.596;5.624;2023-04-24T05:44:54;8.40;;;6.40;;
59042;SDS011;44826;51.596;5.624;2023-04-24T05:47:20;8.07;;;5.95;;
59042;SDS011;44826;51.596;5.624;2023-04-24T05:49:46;7.75;;;5.82;;
59042;SDS011;44826;51.596;5.624;2023-04-24T05:52:12;7.90;;;5.07;;
59042;SDS011;44826;51.596;5.624;2023-04-24T05:54:37;6.78;;;4.85;;
59042;SDS011;44826;51.596;5.624;2023-04-24T05:57:03;8.63;;;4.68;;
59042;SDS011;44826;51.596;5.624;2023-04-24T05:59:32;5.80;;;4.15;;
59042;SDS011;44826;51.596;5.624;2023-04-24T06:01:57;5.30;;;3.97;;
59042;SDS011;44826;51.596;5.624;2023-04-24T06:04:23;6.20;;;3.70;;
59042;SDS011;44826;51.596;5.624;2023-04-24T06:06:48;5.28;;;3.58;;
59042;SDS011;44826;51.596;5.624;2023-04-24T06:09:15;4.97;;;3.45;;
59042;SDS011;44826;51.596;5.624;2023-04-24T06:11:41;4.78;;;2.92;;
59042;SDS011;44826;51.596;5.624;2023-04-24T06:14:07;2.83;;;1.95;;
59042;SDS011;44826;51.596;5.624;2023-04-24T06:16:32;5.90;;;2.20;;
59042;SDS011;44826;51.596;5.624;2023-04-24T06:18:58;3.53;;;2.10;;
59042;SDS011;44826;51.596;5.624;2023-04-24T06:21:23;3.85;;;2.28;;
59042;SDS011;44826;51.596;5.624;2023-04-24T06:23:48;2.90;;;2.10;;
59042;SDS011;44826;51.596;5.624;2023-04-24T06:26:14;2.85;;;2.10;;
59042;SDS011;44826;51.596;5.624;2023-04-24T06:28:40;2.70;;;1.90;;
59042;SDS011;44826;51.596;5.624;2023-04-24T06:31:05;2.50;;;2.05;;
59042;SDS011;44826;51.596;5.624;2023-04-24T06:33:30;3.22;;;2.17;;
59042;SDS011;44826;51.596;5.624;2023-04-24T06:35:56;4.35;;;2.30;;
59042;SDS011;44826;51.596;5.624;2023-04-24T06:38:21;3.30;;;2.20;;
59042;SDS011;44826;51.596;5.624;2023-04-24T06:40:46;3.33;;;2.25;;
59042;SDS011;44826;51.596;5.624;2023-04-24T06:43:11;3.03;;;2.05;;
59042;SDS011;44826;51.596;5.624;2023-04-24T06:45:37;2.78;;;2.15;;
59042;SDS011;44826;51.596;5.624;2023-04-24T06:48:04;3.30;;;2.22;;
59042;SDS011;44826;51.596;5.624;2023-04-24T06:50:29;3.05;;;1.95;;
59042;SDS011;44826;51.596;5.624;2023-04-24T06:52:54;2.58;;;1.98;;
59042;SDS011;44826;51.596;5.624;2023-04-24T06:55:19;3.28;;;2.25;;
59042;SDS011;44826;51.596;5.624;2023-04-24T06:57:45;3.40;;;2.58;;
59042;SDS011;44826;51.596;5.624;2023-04-24T07:00:10;3.30;;;2.83;;
59042;SDS011;44826;51.596;5.624;2023-04-24T07:02:36;4.03;;;3.35;;
59042;SDS011;44826;51.596;5.624;2023-04-24T07:05:02;6.30;;;3.25;;
59042;SDS011;44826;51.596;5.624;2023-04-24T07:07:28;5.13;;;2.72;;
59042;SDS011;44826;51.596;5.624;2023-04-24T07:09:53;3.42;;;2.83;;
59042;SDS011;44826;51.596;5.624;2023-04-24T07:12:19;3.00;;;2.40;;
59042;SDS011;44826;51.596;5.624;2023-04-24T07:14:46;4.18;;;2.33;;
59042;SDS011;44826;51.596;5.624;2023-04-24T07:17:11;4.05;;;2.70;;
59042;SDS011;44826;51.596;5.624;2023-04-24T07:19:38;4.55;;;2.70;;
59042;SDS011;44826;51.596;5.624;2023-04-24T07:22:03;3.60;;;2.80;;
59042;SDS011;44826;51.596;5.624;2023-04-24T07:24:28;5.35;;;3.47;;
59042;SDS011;44826;51.596;5.624;2023-04-24T07:26:54;5.80;;;4.28;;
59042;SDS011;44826;51.596;5.624;2023-04-24T07:29:20;6.25;;;4.50;;
59042;SDS011;44826;51.596;5.624;2023-04-24T07:31:46;10.77;;;5.95;;
59042;SDS011;44826;51.596;5.624;2023-04-24T07:34:11;10.25;;;6.22;;
59042;SDS011;44826;51.596;5.624;2023-04-24T07:36:36;10.48;;;6.38;;
59042;SDS011;44826;51.596;5.624;2023-04-24T07:39:03;12.20;;;7.13;;
59042;SDS011;44826;51.596;5.624;2023-04-24T07:41:29;11.85;;;6.90;;
59042;SDS011;44826;51.596;5.624;2023-04-24T07:43:54;11.88;;;6.65;;
59042;SDS011;44826;51.596;5.624;2023-04-24T07:46:20;11.73;;;6.40;;
59042;SDS011;44826;51.596;5.624;2023-04-24T07:48:45;9.30;;;5.75;;
59042;SDS011;44826;51.596;5.624;2023-04-24T07:51:12;10.52;;;5.80;;
59042;SDS011;44826;51.596;5.624;2023-04-24T07:53:38;10.80;;;5.78;;
59042;SDS011;44826;51.596;5.624;2023-04-24T07:56:04;9.88;;;5.70;;
59042;SDS011;44826;51.596;5.624;2023-04-24T07:58:30;8.40;;;5.18;;
59042;SDS011;44826;51.596;5.624;2023-04-24T08:00:55;8.23;;;5.50;;
59042;SDS011;44826;51.596;5.624;2023-04-24T08:03:21;8.80;;;5.80;;
59042;SDS011;44826;51.596;5.624;2023-04-24T08:05:46;12.23;;;6.05;;
59042;SDS011;44826;51.596;5.624;2023-04-24T08:08:11;9.65;;;5.53;;
59042;SDS011;44826;51.596;5.624;2023-04-24T08:10:37;10.00;;;5.00;;
59042;SDS011;44826;51.596;5.624;2023-04-24T08:13:02;12.25;;;5.57;;
59042;SDS011;44826;51.596;5.624;2023-04-24T08:15:27;10.77;;;5.00;;
59042;SDS011;44826;51.596;5.624;2023-04-24T08:17:53;11.50;;;4.57;;
59042;SDS011;44826;51.596;5.624;2023-04-24T08:20:18;13.98;;;4.53;;
59042;SDS011;44826;51.596;5.624;2023-04-24T08:22:43;10.65;;;4.65;;
59042;SDS011;44826;51.596;5.624;2023-04-24T08:25:10;12.65;;;4.60;;
59042;SDS011;44826;51.596;5.624;2023-04-24T08:27:36;12.48;;;4.40;;
59042;SDS011;44826;51.596;5.624;2023-04-24T08:30:04;11.15;;;4.80;;
59042;SDS011;44826;51.596;5.624;2023-04-24T08:32:30;13.57;;;4.55;;
59042;SDS011;44826;51.596;5.624;2023-04-24T08:34:56;16.52;;;4.70;;
59042;SDS011;44826;51.596;5.624;2023-04-24T08:37:22;12.45;;;4.05;;
59042;SDS011;44826;51.596;5.624;2023-04-24T08:39:49;9.02;;;3.67;;
59042;SDS011;44826;51.596;5.624;2023-04-24T08:42:14;8.32;;;3.58;;
59042;SDS011;44826;51.596;5.624;2023-04-24T08:44:41;7.82;;;3.67;;
59042;SDS011;44826;51.596;5.624;2023-04-24T08:47:07;6.40;;;3.00;;
59042;SDS011;44826;51.596;5.624;2023-04-24T08:49:33;9.93;;;3.20;;
59042;SDS011;44826;51.596;5.624;2023-04-24T08:51:59;7.75;;;2.88;;
59042;SDS011;44826;51.596;5.624;2023-04-24T08:54:25;11.27;;;3.40;;
59042;SDS011;44826;51.596;5.624;2023-04-24T08:56:51;8.80;;;3.03;;
59042;SDS011;44826;51.596;5.624;2023-04-24T08:59:19;10.98;;;2.78;;
59042;SDS011;44826;51.596;5.624;2023-04-24T09:01:46;13.35;;;3.30;;
59042;SDS011;44826;51.596;5.624;2023-04-24T09:04:13;11.80;;;3.55;;
59042;SDS011;44826;51.596;5.624;2023-04-24T09:06:41;10.98;;;2.83;;
59042;SDS011;44826;51.596;5.624;2023-04-24T09:09:06;8.88;;;3.00;;
59042;SDS011;44826;51.596;5.624;2023-04-24T09:11:33;9.25;;;3.15;;
59042;SDS011;44826;51.596;5.624;2023-04-24T09:13:58;10.10;;;3.10;;
59042;SDS011;44826;51.596;5.624;2023-04-24T09:16:24;10.25;;;2.80;;
59042;SDS011;44826;51.596;5.624;2023-04-24T09:18:51;9.77;;;2.70;;
59042;SDS011;44826;51.596;5.624;2023-04-24T09:21:16;10.55;;;2.67;;
59042;SDS011;44826;51.596;5.624;2023-04-24T09:23:42;8.35;;;2.60;;
59042;SDS011;44826;51.596;5.624;2023-04-24T09:26:07;13.32;;;2.70;;
59042;SDS011;44826;51.596;5.624;2023-04-24T09:28:36;8.45;;;2.60;;
59042;SDS011;44826;51.596;5.624;2023-04-24T09:31:09;8.80;;;2.72;;
59042;SDS011;44826;51.596;5.624;2023-04-24T09:33:38;6.40;;;2.65;;
59042;SDS011;44826;51.596;5.624;2023-04-24T09:36:04;8.02;;;2.90;;
59042;SDS011;44826;51.596;5.624;2023-04-24T09:38:31;9.27;;;2.78;;
59042;SDS011;44826;51.596;5.624;2023-04-24T09:41:07;8.93;;;2.65;;
59042;SDS011;44826;51.596;5.624;2023-04-24T09:43:33;9.32;;;2.72;;
59042;SDS011;44826;51.596;5.624;2023-04-24T09:46:04;8.90;;;2.35;;
59042;SDS011;44826;51.596;5.624;2023-04-24T09:48:32;6.57;;;2.10;;
59042;SDS011;44826;51.596;5.624;2023-04-24T09:50:58;9.00;;;2.70;;
59042;SDS011;44826;51.596;5.624;2023-04-24T09:53:26;7.47;;;2.30;;
59042;SDS011;44826;51.596;5.624;2023-04-24T09:55:52;10.63;;;2.10;;
59042;SDS011;44826;51.596;5.624;2023-04-24T09:58:18;8.05;;;2.00;;
59042;SDS011;44826;51.596;5.624;2023-04-24T10:00:49;10.50;;;2.30;;
59042;SDS011;44826;51.596;5.624;2023-04-24T10:03:17;5.97;;;1.95;;
59042;SDS011;44826;51.596;5.624;2023-04-24T10:05:44;6.68;;;2.03;;
59042;SDS011;44826;51.596;5.624;2023-04-24T10:08:11;6.50;;;2.20;;
59042;SDS011;44826;51.596;5.624;2023-04-24T10:10:39;10.35;;;2.17;;
59042;SDS011;44826;51.596;5.624;2023-04-24T10:13:09;8.15;;;2.10;;
59042;SDS011;44826;51.596;5.624;2023-04-24T10:15:39;6.50;;;2.25;;
59042;SDS011;44826;51.596;5.624;2023-04-24T10:18:05;7.50;;;1.88;;
59042;SDS011;44826;51.596;5.624;2023-04-24T10:20:32;6.88;;;2.00;;
59042;SDS011;44826;51.596;5.624;2023-04-24T10:22:58;6.68;;;1.80;;
59042;SDS011;44826;51.596;5.624;2023-04-24T10:25:28;3.83;;;1.55;;
59042;SDS011;44826;51.596;5.624;2023-04-24T10:27:55;6.00;;;1.70;;
59042;SDS011;44826;51.596;5.624;2023-04-24T10:30:28;7.18;;;1.60;;
59042;SDS011;44826;51.596;5.624;2023-04-24T10:32:55;6.43;;;1.80;;
59042;SDS011;44826;51.596;5.624;2023-04-24T10:35:20;5.43;;;1.50;;
59042;SDS011;44826;51.596;5.624;2023-04-24T10:37:50;4.63;;;1.40;;
59042;SDS011;44826;51.596;5.624;2023-04-24T10:40:24;3.33;;;1.20;;
59042;SDS011;44826;51.596;5.624;2023-04-24T10:42:52;5.78;;;1.48;;
59042;SDS011;44826;51.596;5.624;2023-04-24T10:45:20;4.60;;;1.50;;
59042;SDS011;44826;51.596;5.624;2023-04-24T10:47:54;6.05;;;1.70;;
59042;SDS011;44826;51.596;5.624;2023-04-24T10:50:22;3.17;;;1.20;;
59042;SDS011;44826;51.596;5.624;2023-04-24T10:52:48;2.10;;;0.98;;
59042;SDS011;44826;51.596;5.624;2023-04-24T10:55:16;1.75;;;0.85;;
59042;SDS011;44826;51.596;5.624;2023-04-24T10:58:00;5.68;;;1.20;;
59042;SDS011;44826;51.596;5.624;2023-04-24T11:00:29;4.65;;;1.00;;
59042;SDS011;44826;51.596;5.624;2023-04-24T11:02:54;2.85;;;1.08;;
59042;SDS011;44826;51.596;5.624;2023-04-24T11:05:21;2.13;;;0.90;;
59042;SDS011;44826;51.596;5.624;2023-04-24T11:10:46;2.72;;;0.95;;
59042;SDS011;44826;51.596;5.624;2023-04-24T11:13:21;3.88;;;1.20;;
59042;SDS011;44826;51.596;5.624;2023-04-24T11:15:58;3.47;;;0.98;;
59042;SDS011;44826;51.596;5.624;2023-04-24T11:18:40;2.88;;;1.00;;
59042;SDS011;44826;51.596;5.624;2023-04-24T11:21:15;3.23;;;1.17;;
59042;SDS011;44826;51.596;5.624;2023-04-24T11:23:42;3.88;;;1.02;;
59042;SDS011;44826;51.596;5.624;2023-04-24T11:26:11;2.13;;;1.40;;
59042;SDS011;44826;51.596;5.624;2023-04-24T11:28:46;2.58;;;1.10;;
59042;SDS011;44826;51.596;5.624;2023-04-24T11:34:13;4.57;;;0.93;;
59042;SDS011;44826;51.596;5.624;2023-04-24T11:36:40;3.78;;;1.00;;
59042;SDS011;44826;51.596;5.624;2023-04-24T11:39:08;3.42;;;0.85;;
59042;SDS011;44826;51.596;5.624;2023-04-24T11:41:33;2.28;;;0.70;;
59042;SDS011;44826;51.596;5.624;2023-04-24T11:44:00;3.67;;;0.80;;
59042;SDS011;44826;51.596;5.624;2023-04-24T11:46:27;2.95;;;0.60;;
59042;SDS011;44826;51.596;5.624;2023-04-24T11:48:53;2.17;;;0.63;;
59042;SDS011;44826;51.596;5.624;2023-04-24T11:51:19;3.25;;;0.98;;
59042;SDS011;44826;51.596;5.624;2023-04-24T11:53:44;2.10;;;0.75;;
59042;SDS011;44826;51.596;5.624;2023-04-24T11:56:09;4.03;;;0.90;;
59042;SDS011;44826;51.596;5.624;2023-04-24T11:58:38;2.22;;;0.70;;
59042;SDS011;44826;51.596;5.624;2023-04-24T12:01:04;2.63;;;0.70;;
59042;SDS011;44826;51.596;5.624;2023-04-24T12:03:30;2.22;;;0.55;;
59042;SDS011;44826;51.596;5.624;2023-04-24T12:06:08;2.58;;;0.70;;
59042;SDS011;44826;51.596;5.624;2023-04-24T12:08:35;4.40;;;0.80;;
59042;SDS011;44826;51.596;5.624;2023-04-24T12:11:01;2.70;;;0.80;;
59042;SDS011;44826;51.596;5.624;2023-04-24T12:13:28;3.83;;;0.82;;
59042;SDS011;44826;51.596;5.624;2023-04-24T12:15:53;2.45;;;0.82;;
59042;SDS011;44826;51.596;5.624;2023-04-24T12:18:22;2.08;;;0.73;;
59042;SDS011;44826;51.596;5.624;2023-04-24T12:20:48;2.53;;;0.70;;
59042;SDS011;44826;51.596;5.624;2023-04-24T12:23:13;6.50;;;1.00;;
59042;SDS011;44826;51.596;5.624;2023-04-24T12:25:39;2.80;;;0.90;;
59042;SDS011;44826;51.596;5.624;2023-04-24T12:30:32;2.72;;;0.75;;
59042;SDS011;44826;51.596;5.624;2023-04-24T12:33:03;4.85;;;0.82;;
59042;SDS011;44826;51.596;5.624;2023-04-24T12:35:29;3.13;;;0.85;;
59042;SDS011;44826;51.596;5.624;2023-04-24T12:38:04;2.33;;;0.88;;
59042;SDS011;44826;51.596;5.624;2023-04-24T12:40:34;4.03;;;1.00;;
59042;SDS011;44826;51.596;5.624;2023-04-24T12:42:59;2.28;;;0.80;;
59042;SDS011;44826;51.596;5.624;2023-04-24T12:45:25;5.30;;;0.90;;
59042;SDS011;44826;51.596;5.624;2023-04-24T12:47:52;3.60;;;1.10;;
59042;SDS011;44826;51.596;5.624;2023-04-24T12:50:18;5.03;;;1.65;;
59042;SDS011;44826;51.596;5.624;2023-04-24T12:52:43;1.73;;;0.90;;
59042;SDS011;44826;51.596;5.624;2023-04-24T12:55:08;2.47;;;0.90;;
59042;SDS011;44826;51.596;5.624;2023-04-24T12:57:35;1.35;;;0.75;;
59042;SDS011;44826;51.596;5.624;2023-04-24T13:00:02;3.10;;;1.00;;
59042;SDS011;44826;51.596;5.624;2023-04-24T13:02:29;2.35;;;0.80;;
59042;SDS011;44826;51.596;5.624;2023-04-24T13:04:55;3.22;;;1.20;;
59042;SDS011;44826;51.596;5.624;2023-04-24T13:07:21;2.28;;;0.93;;
59042;SDS011;44826;51.596;5.624;2023-04-24T13:09:47;2.10;;;0.90;;
59042;SDS011;44826;51.596;5.624;2023-04-24T13:12:14;1.98;;;0.80;;
59042;SDS011;44826;51.596;5.624;2023-04-24T13:14:39;2.88;;;0.93;;
59042;SDS011;44826;51.596;5.624;2023-04-24T13:17:05;4.55;;;0.90;;
59042;SDS011;44826;51.596;5.624;2023-04-24T13:19:35;4.05;;;1.00;;
59042;SDS011;44826;51.596;5.624;2023-04-24T13:22:01;2.75;;;1.00;;
59042;SDS011;44826;51.596;5.624;2023-04-24T13:24:27;3.08;;;0.80;;
59042;SDS011;44826;51.596;5.624;2023-04-24T13:26:52;3.35;;;0.90;;
59042;SDS011;44826;51.596;5.624;2023-04-24T13:29:18;2.17;;;0.70;;
59042;SDS011;44826;51.596;5.624;2023-04-24T13:31:44;1.80;;;0.70;;
59042;SDS011;44826;51.596;5.624;2023-04-24T13:34:09;2.53;;;0.90;;
59042;SDS011;44826;51.596;5.624;2023-04-24T13:36:35;2.97;;;0.90;;
59042;SDS011;44826;51.596;5.624;2023-04-24T13:39:01;2.42;;;0.85;;
59042;SDS011;44826;51.596;5.624;2023-04-24T13:41:29;1.52;;;0.65;;
59042;SDS011;44826;51.596;5.624;2023-04-24T13:43:55;3.10;;;0.90;;
59042;SDS011;44826;51.596;5.624;2023-04-24T13:46:20;2.67;;;0.70;;
59042;SDS011;44826;51.596;5.624;2023-04-24T13:48:45;2.63;;;0.85;;
59042;SDS011;44826;51.596;5.624;2023-04-24T13:51:11;1.67;;;0.60;;
59042;SDS011;44826;51.596;5.624;2023-04-24T13:53:36;2.72;;;0.88;;
59042;SDS011;44826;51.596;5.624;2023-04-24T13:56:03;3.35;;;0.70;;
59042;SDS011;44826;51.596;5.624;2023-04-24T13:58:28;3.58;;;0.70;;
59042;SDS011;44826;51.596;5.624;2023-04-24T14:00:54;3.42;;;0.80;;
59042;SDS011;44826;51.596;5.624;2023-04-24T14:03:20;3.88;;;0.95;;
59042;SDS011;44826;51.596;5.624;2023-04-24T14:05:45;3.53;;;0.70;;
59042;SDS011;44826;51.596;5.624;2023-04-24T14:08:11;3.60;;;0.95;;
59042;SDS011;44826;51.596;5.624;2023-04-24T14:10:36;3.97;;;0.95;;
59042;SDS011;44826;51.596;5.624;2023-04-24T14:13:02;2.35;;;0.80;;
59042;SDS011;44826;51.596;5.624;2023-04-24T14:15:27;2.30;;;1.02;;
59042;SDS011;44826;51.596;5.624;2023-04-24T14:17:53;3.22;;;0.90;;
59042;SDS011;44826;51.596;5.624;2023-04-24T14:20:18;2.13;;;0.90;;
59042;SDS011;44826;51.596;5.624;2023-04-24T14:22:43;2.35;;;0.68;;
59042;SDS011;44826;51.596;5.624;2023-04-24T14:25:09;2.05;;;0.85;;
59042;SDS011;44826;51.596;5.624;2023-04-24T14:27:34;1.00;;;0.60;;
59042;SDS011;44826;51.596;5.624;2023-04-24T14:30:00;2.33;;;1.05;;
59042;SDS011;44826;51.596;5.624;2023-04-24T14:32:25;3.17;;;0.95;;
59042;SDS011;44826;51.596;5.624;2023-04-24T14:34:51;3.17;;;0.82;;
59042;SDS011;44826;51.596;5.624;2023-04-24T14:37:16;3.08;;;1.25;;
59042;SDS011;44826;51.596;5.624;2023-04-24T14:39:41;4.03;;;1.30;;
59042;SDS011;44826;51.596;5.624;2023-04-24T14:42:07;2.60;;;1.10;;
59042;SDS011;44826;51.596;5.624;2023-04-24T14:44:32;4.10;;;1.10;;